createdAt,value
2018-07-01T00:01:53.309Z,20.00
2018-07-01T00:04:22.220Z,20.00
2018-07-01T00:06:50.529Z,19.90
2018-07-01T00:09:19.076Z,19.80
2018-07-01T00:11:47.890Z,19.80
2018-07-01T00:14:17.158Z,19.80
2018-07-01T00:16:45.429Z,19.80
2018-07-01T00:19:13.742Z,19.80
2018-07-01T00:21:42.049Z,19.70
2018-07-01T00:24:10.331Z,19.70
2018-07-01T00:26:39.164Z,19.70
2018-07-01T00:29:07.839Z,19.60
2018-07-01T00:31:36.139Z,19.60
2018-07-01T00:36:32.474Z,19.50
2018-07-01T00:39:00.755Z,19.50
2018-07-01T00:43:57.687Z,19.40
2018-07-01T00:46:25.978Z,19.30
2018-07-01T00:48:54.252Z,19.30
2018-07-01T00:51:22.515Z,19.30
2018-07-01T00:53:50.773Z,19.20
2018-07-01T00:56:19.115Z,19.20
2018-07-01T00:58:48.032Z,19.10
2018-07-01T01:01:16.678Z,19.00
2018-07-01T01:03:45.318Z,19.00
2018-07-01T01:06:13.577Z,18.90
2018-07-01T01:08:41.871Z,18.90
2018-07-01T01:11:11.012Z,18.80
2018-07-01T01:13:39.268Z,18.70
2018-07-01T01:16:07.732Z,18.70
2018-07-01T01:18:36.325Z,18.70
2018-07-01T01:21:05.348Z,18.60
2018-07-01T01:23:33.969Z,18.50
2018-07-01T01:26:02.271Z,18.40
2018-07-01T01:28:30.713Z,18.40
2018-07-01T01:30:58.991Z,18.30
2018-07-01T01:33:27.334Z,18.30
2018-07-01T01:35:55.651Z,18.20
2018-07-01T01:38:25.604Z,18.10
2018-07-01T01:40:58.511Z,18.10
2018-07-01T01:43:31.903Z,18.10
2018-07-01T01:46:35.854Z,18.00
2018-07-01T01:52:13.316Z,18.00
2018-07-01T01:56:50.528Z,17.90
2018-07-01T01:59:31.252Z,17.80
2018-07-01T02:02:08.778Z,17.70
2018-07-01T02:04:42.256Z,17.70
2018-07-01T02:07:14.529Z,17.60
2018-07-01T02:09:42.775Z,17.50
2018-07-01T02:12:13.057Z,17.60
2018-07-01T02:14:49.525Z,17.50
2018-07-01T02:17:24.074Z,17.50
2018-07-01T02:19:52.587Z,17.40
2018-07-01T02:22:28.195Z,17.30
2018-07-01T02:24:57.759Z,17.30
2018-07-01T02:27:26.041Z,17.20
2018-07-01T02:29:54.322Z,17.20
2018-07-01T02:32:22.584Z,17.20
2018-07-01T02:34:50.933Z,17.20
2018-07-01T02:37:19.676Z,17.10
2018-07-01T02:39:47.971Z,17.10
2018-07-01T02:42:16.495Z,17.10
2018-07-01T02:44:45.095Z,17.10
2018-07-01T02:47:13.408Z,17.00
2018-07-01T02:49:41.664Z,17.00
2018-07-01T02:52:09.925Z,17.00
2018-07-01T02:54:38.237Z,17.00
2018-07-01T02:57:06.551Z,17.00
2018-07-01T02:59:34.843Z,16.90
2018-07-01T03:02:03.083Z,16.90
2018-07-01T03:04:31.347Z,16.90
2018-07-01T03:06:59.959Z,17.00
2018-07-01T03:09:28.253Z,16.90
2018-07-01T03:11:56.548Z,16.90
2018-07-01T03:14:24.831Z,16.90
2018-07-01T03:16:53.143Z,16.90
2018-07-01T03:19:21.407Z,16.90
2018-07-01T03:21:49.706Z,16.90
2018-07-01T03:24:17.950Z,16.90
2018-07-01T03:26:46.206Z,16.80
2018-07-01T03:29:14.444Z,16.80
2018-07-01T03:31:42.734Z,16.80
2018-07-01T03:34:11.570Z,16.80
2018-07-01T03:36:40.167Z,16.70
2018-07-01T03:39:09.575Z,16.70
2018-07-01T03:41:37.818Z,16.70
2018-07-01T03:44:06.454Z,16.70
2018-07-01T03:46:34.881Z,16.70
2018-07-01T03:49:03.192Z,16.70
2018-07-01T03:51:31.435Z,16.70
2018-07-01T03:53:59.714Z,16.70
2018-07-01T03:56:27.965Z,16.60
2018-07-01T03:58:56.301Z,16.60
2018-07-01T04:01:24.630Z,16.70
2018-07-01T04:03:53.150Z,16.70
2018-07-01T04:06:21.885Z,16.70
2018-07-01T04:08:50.121Z,16.70
2018-07-01T04:11:18.369Z,16.60
2018-07-01T04:13:46.627Z,16.70
2018-07-01T04:16:15.134Z,16.70
2018-07-01T04:18:43.622Z,16.70
2018-07-01T04:21:11.954Z,16.70
2018-07-01T04:23:40.563Z,16.70
2018-07-01T04:26:08.840Z,16.80
2018-07-01T04:28:37.196Z,16.80
2018-07-01T04:31:05.571Z,16.80
2018-07-01T04:33:34.356Z,16.80
2018-07-01T04:36:02.619Z,16.80
2018-07-01T04:38:31.254Z,16.80
2018-07-01T04:40:59.522Z,16.90
2018-07-01T04:43:27.818Z,16.90
2018-07-01T04:45:56.096Z,16.90
2018-07-01T04:48:24.366Z,16.90
2018-07-01T04:50:52.992Z,17.00
2018-07-01T04:53:21.251Z,16.90
2018-07-01T04:55:49.547Z,17.00
2018-07-01T04:58:17.813Z,17.00
2018-07-01T05:00:46.130Z,17.00
2018-07-01T05:03:15.634Z,17.10
2018-07-01T05:05:43.879Z,17.10
2018-07-01T05:08:12.437Z,17.20
2018-07-01T05:10:40.723Z,17.20
2018-07-01T05:13:09.002Z,17.30
2018-07-01T05:15:37.293Z,17.30
2018-07-01T05:18:05.633Z,17.30
2018-07-01T05:20:33.964Z,17.40
2018-07-01T05:23:02.724Z,17.40
2018-07-01T05:25:31.024Z,17.50
2018-07-01T05:27:59.266Z,17.60
2018-07-01T05:30:27.560Z,17.70
2018-07-01T05:32:56.265Z,17.80
2018-07-01T05:35:24.539Z,17.90
2018-07-01T05:37:52.854Z,18.00
2018-07-01T05:40:21.424Z,18.10
2018-07-01T05:42:49.669Z,18.20
2018-07-01T05:45:17.940Z,18.30
2018-07-01T05:47:46.195Z,18.50
2018-07-01T05:50:14.531Z,18.50
2018-07-01T05:52:43.122Z,18.70
2018-07-01T05:55:11.759Z,18.80
2018-07-01T05:57:40.017Z,19.00
2018-07-01T06:00:08.317Z,19.10
2018-07-01T06:02:36.624Z,19.20
2018-07-01T06:07:33.137Z,19.40
2018-07-01T06:10:01.399Z,19.60
2018-07-01T06:12:29.767Z,19.70
2018-07-01T06:14:58.589Z,19.80
2018-07-01T06:17:26.888Z,19.90
2018-07-01T06:19:55.738Z,20.10
2018-07-01T06:22:24.584Z,20.30
2018-07-01T06:24:53.393Z,20.40
2018-07-01T06:27:22.199Z,20.60
2018-07-01T06:30:00.595Z,20.60
2018-07-01T06:32:29.420Z,20.70
2018-07-01T06:37:33.104Z,20.80
2018-07-01T06:40:02.017Z,21.00
2018-07-01T06:42:30.878Z,21.10
2018-07-01T06:45:02.881Z,21.30
2018-07-01T06:47:31.759Z,21.40
2018-07-01T06:50:00.626Z,21.60
2018-07-01T06:52:29.509Z,21.70
2018-07-01T06:54:58.438Z,21.60
2018-07-01T06:57:27.286Z,21.70
2018-07-01T06:59:56.456Z,21.80
2018-07-01T07:02:25.740Z,21.90
2018-07-01T07:04:54.855Z,21.80
2018-07-01T07:07:23.791Z,21.90
2018-07-01T07:09:52.645Z,21.90
2018-07-01T07:12:21.855Z,22.00
2018-07-01T07:14:50.703Z,22.00
2018-07-01T07:17:19.582Z,22.10
2018-07-01T07:19:48.696Z,22.00
2018-07-01T07:22:17.799Z,22.20
2018-07-01T07:24:46.965Z,22.00
2018-07-01T07:27:16.138Z,22.10
2018-07-01T07:29:45.091Z,22.20
2018-07-01T07:32:13.978Z,22.30
2018-07-01T07:34:42.809Z,22.40
2018-07-01T07:37:11.721Z,22.30
2018-07-01T07:39:40.559Z,22.30
2018-07-01T07:42:09.460Z,22.50
2018-07-01T07:44:38.534Z,22.60
2018-07-01T07:47:07.529Z,22.60
2018-07-01T07:49:37.002Z,22.60
2018-07-01T07:52:12.624Z,22.70
2018-07-01T07:54:41.942Z,22.60
2018-07-01T07:57:10.809Z,22.60
2018-07-01T07:59:39.828Z,22.80
2018-07-01T08:02:09.053Z,22.90
2018-07-01T08:04:37.608Z,22.90
2018-07-01T08:07:14.621Z,23.00
2018-07-01T08:09:43.639Z,23.00
2018-07-01T08:12:12.861Z,23.10
2018-07-01T08:14:41.905Z,23.20
2018-07-01T08:17:11.184Z,23.30
2018-07-01T08:19:40.313Z,23.20
2018-07-01T08:22:09.416Z,23.20
2018-07-01T08:24:41.729Z,23.20
2018-07-01T08:27:10.603Z,23.20
2018-07-01T08:29:39.816Z,23.20
2018-07-01T08:32:09.108Z,23.30
2018-07-01T08:34:38.025Z,23.30
2018-07-01T08:37:07.029Z,23.30
2018-07-01T08:39:39.069Z,23.30
2018-07-01T08:42:26.750Z,23.40
2018-07-01T08:44:56.494Z,23.40
2018-07-01T08:47:25.409Z,23.40
2018-07-01T08:49:54.464Z,23.50
2018-07-01T08:52:23.442Z,23.60
2018-07-01T08:57:24.609Z,23.90
2018-07-01T08:59:53.794Z,23.90
2018-07-01T09:02:22.923Z,23.90
2018-07-01T09:04:51.711Z,23.90
2018-07-01T09:07:20.812Z,23.80
2018-07-01T09:09:50.275Z,23.70
2018-07-01T09:12:19.154Z,23.80
2018-07-01T09:14:48.040Z,23.90
2018-07-01T09:17:16.941Z,24.00
2018-07-01T09:19:46.017Z,24.00
2018-07-01T09:22:17.923Z,24.10
2018-07-01T09:24:46.810Z,24.10
2018-07-01T09:27:15.773Z,24.20
2018-07-01T09:32:18.916Z,24.30
2018-07-01T09:34:47.817Z,24.30
2018-07-01T09:37:16.705Z,24.40
2018-07-01T09:39:45.651Z,24.40
2018-07-01T09:42:14.897Z,24.40
2018-07-01T09:44:43.774Z,24.40
2018-07-01T09:47:12.932Z,24.40
2018-07-01T09:49:41.818Z,24.50
2018-07-01T09:52:10.706Z,24.50
2018-07-01T09:54:39.584Z,24.70
2018-07-01T09:57:08.786Z,24.90
2018-07-01T09:59:37.731Z,24.80
2018-07-01T10:02:06.566Z,24.90
2018-07-01T10:04:35.452Z,24.90
2018-07-01T10:07:04.824Z,25.00
2018-07-01T10:09:33.689Z,25.00
2018-07-01T10:12:02.915Z,24.80
2018-07-01T10:14:31.946Z,24.70
2018-07-01T10:17:00.811Z,24.80
2018-07-01T10:19:29.736Z,24.90
2018-07-01T10:21:58.595Z,25.00
2018-07-01T10:24:27.464Z,25.10
2018-07-01T10:26:56.344Z,25.10
2018-07-01T10:29:25.215Z,25.00
2018-07-01T10:31:54.121Z,25.20
2018-07-01T10:36:51.781Z,25.30
2018-07-01T10:39:20.688Z,25.30
2018-07-01T10:41:49.596Z,25.40
2018-07-01T10:44:18.533Z,25.40
2018-07-01T10:46:47.407Z,25.40
2018-07-01T10:49:16.287Z,25.40
2018-07-01T10:51:45.553Z,25.40
2018-07-01T10:54:14.558Z,25.50
2018-07-01T10:56:43.806Z,25.50
2018-07-01T10:59:13.060Z,25.50
2018-07-01T11:01:41.980Z,25.70
2018-07-01T11:04:10.539Z,25.80
2018-07-01T11:06:39.388Z,25.80
2018-07-01T11:09:10.410Z,25.80
2018-07-01T11:11:48.696Z,25.60
2018-07-01T11:14:17.758Z,25.70
2018-07-01T11:16:46.589Z,25.90
2018-07-01T11:19:15.520Z,26.10
2018-07-01T11:21:44.371Z,25.80
2018-07-01T11:24:13.646Z,25.80
2018-07-01T11:26:42.523Z,25.60
2018-07-01T11:29:11.538Z,25.80
2018-07-01T11:31:40.455Z,25.70
2018-07-01T11:34:09.652Z,25.70
2018-07-01T11:36:38.553Z,26.00
2018-07-01T11:39:09.009Z,26.10
2018-07-01T11:44:06.499Z,26.10
2018-07-01T11:49:04.252Z,26.10
2018-07-01T11:51:33.166Z,26.30
2018-07-01T11:54:02.046Z,26.40
2018-07-01T11:56:30.922Z,26.40
2018-07-01T11:58:59.820Z,26.50
2018-07-01T12:01:28.805Z,26.60
2018-07-01T12:03:57.923Z,26.50
2018-07-01T12:06:26.855Z,26.60
2018-07-01T12:08:55.766Z,26.70
2018-07-01T12:13:53.852Z,26.80
2018-07-01T12:16:22.786Z,27.00
2018-07-01T12:18:51.696Z,27.20
2018-07-01T12:21:20.614Z,27.30
2018-07-01T12:23:49.778Z,27.20
2018-07-01T12:26:18.713Z,27.00
2018-07-01T12:28:47.680Z,26.90
2018-07-01T12:31:16.727Z,26.90
2018-07-01T12:33:45.596Z,27.00
2018-07-01T12:36:14.454Z,27.20
2018-07-01T12:38:43.379Z,27.40
2018-07-01T12:41:12.612Z,27.50
2018-07-01T12:43:41.590Z,27.30
2018-07-01T12:46:10.819Z,27.20
2018-07-01T12:48:39.905Z,27.50
2018-07-01T12:51:09.032Z,27.70
2018-07-01T12:53:38.598Z,27.70
2018-07-01T12:56:07.851Z,27.80
2018-07-01T12:58:36.882Z,28.00
2018-07-01T13:01:06.338Z,27.90
2018-07-01T13:03:34.719Z,28.00
2018-07-01T13:06:03.699Z,27.30
2018-07-01T13:08:32.628Z,27.50
2018-07-01T13:11:01.370Z,27.70
2018-07-01T13:13:30.636Z,27.90
2018-07-01T13:15:59.583Z,27.70
2018-07-01T13:18:28.511Z,27.90
2018-07-01T13:20:57.632Z,28.00
2018-07-01T13:23:26.594Z,28.20
2018-07-01T13:25:55.561Z,28.30
2018-07-01T13:28:24.480Z,27.70
2018-07-01T13:30:53.446Z,27.70
2018-07-01T13:33:22.649Z,27.80
2018-07-01T13:35:51.598Z,28.10
2018-07-01T13:38:20.672Z,28.40
2018-07-01T13:40:49.540Z,28.50
2018-07-01T13:43:18.104Z,28.60
2018-07-01T13:45:46.748Z,28.60
2018-07-01T13:48:15.602Z,28.60
2018-07-01T13:50:44.464Z,27.90
2018-07-01T13:55:41.694Z,28.60
2018-07-01T13:58:10.595Z,28.80
2018-07-01T14:00:39.612Z,28.80
2018-07-01T14:03:08.355Z,29.00
2018-07-01T14:05:36.916Z,28.60
2018-07-01T14:08:06.166Z,28.60
2018-07-01T14:10:35.119Z,28.70
2018-07-01T14:15:33.246Z,29.10
2018-07-01T14:18:01.883Z,29.20
2018-07-01T14:20:31.075Z,29.40
2018-07-01T14:22:59.668Z,29.30
2018-07-01T14:25:28.326Z,29.40
2018-07-01T14:27:57.141Z,29.40
2018-07-01T14:30:25.739Z,29.60
2018-07-01T14:32:54.311Z,29.80
2018-07-01T14:35:22.907Z,30.10
2018-07-01T14:37:51.541Z,30.40
2018-07-01T14:40:20.176Z,30.40
2018-07-01T14:42:48.769Z,30.30
2018-07-01T14:45:17.404Z,30.70
2018-07-01T14:47:46.013Z,30.70
2018-07-01T14:50:14.973Z,31.10
2018-07-01T14:52:43.688Z,31.60
2018-07-01T14:55:12.239Z,31.80
2018-07-01T14:57:40.828Z,31.90
2018-07-01T15:00:09.407Z,32.20
2018-07-01T15:02:38.051Z,32.10
2018-07-01T15:05:06.620Z,32.40
2018-07-01T15:07:35.204Z,32.50
2018-07-01T15:10:03.806Z,32.50
2018-07-01T15:12:32.422Z,32.40
2018-07-01T15:15:01.076Z,32.60
2018-07-01T15:17:29.742Z,32.80
2018-07-01T15:19:59.134Z,32.50
2018-07-01T15:22:27.740Z,32.20
2018-07-01T15:24:56.610Z,32.20
2018-07-01T15:27:25.557Z,32.50
2018-07-01T15:29:54.159Z,32.60
2018-07-01T15:32:22.832Z,33.00
2018-07-01T15:34:51.452Z,33.70
2018-07-01T15:37:20.016Z,33.60
2018-07-01T15:39:48.597Z,33.30
2018-07-01T15:42:17.175Z,33.50
2018-07-01T15:44:45.855Z,33.70
2018-07-01T15:47:14.614Z,33.20
2018-07-01T15:49:43.193Z,33.30
2018-07-01T15:52:11.781Z,32.90
2018-07-01T15:54:40.369Z,33.10
2018-07-01T15:57:08.943Z,32.50
2018-07-01T15:59:37.905Z,32.50
2018-07-01T16:02:07.036Z,32.90
2018-07-01T16:04:35.645Z,33.00
2018-07-01T16:07:04.218Z,32.90
2018-07-01T16:09:32.794Z,32.90
2018-07-01T16:12:01.382Z,32.80
2018-07-01T16:14:30.005Z,33.50
2018-07-01T16:16:58.572Z,33.60
2018-07-01T16:19:27.137Z,34.10
2018-07-01T16:21:55.765Z,34.20
2018-07-01T16:24:24.367Z,34.80
2018-07-01T16:26:56.592Z,35.00
2018-07-01T16:29:25.189Z,35.00
2018-07-01T16:31:53.769Z,34.60
2018-07-01T16:34:22.352Z,34.80
2018-07-01T16:36:50.962Z,34.90
2018-07-01T16:39:19.564Z,34.40
2018-07-01T16:41:48.216Z,34.00
2018-07-01T16:44:16.799Z,34.20
2018-07-01T16:46:45.418Z,34.70
2018-07-01T16:49:14.048Z,33.90
2018-07-01T16:51:42.644Z,34.20
2018-07-01T16:54:11.300Z,33.90
2018-07-01T16:56:39.976Z,34.10
2018-07-01T16:59:08.573Z,34.00
2018-07-01T17:01:37.468Z,34.50
2018-07-01T17:04:06.102Z,34.60
2018-07-01T17:06:34.708Z,34.50
2018-07-01T17:09:04.448Z,34.10
2018-07-01T17:11:33.365Z,33.70
2018-07-01T17:14:01.910Z,32.20
2018-07-01T17:16:30.518Z,31.60
2018-07-01T17:19:08.512Z,30.90
2018-07-01T17:21:40.362Z,30.40
2018-07-01T17:24:08.989Z,30.10
2018-07-01T17:26:37.560Z,29.70
2018-07-01T17:29:06.165Z,29.10
2018-07-01T17:31:40.241Z,28.60
2018-07-01T17:34:08.840Z,28.40
2018-07-01T17:36:37.428Z,27.90
2018-07-01T17:39:08.166Z,27.80
2018-07-01T17:41:37.002Z,27.60
2018-07-01T17:44:06.450Z,27.40
2018-07-01T17:46:35.780Z,27.10
2018-07-01T17:49:04.909Z,27.10
2018-07-01T17:51:33.929Z,27.00
2018-07-01T17:54:02.827Z,27.00
2018-07-01T17:56:31.831Z,26.90
2018-07-01T17:59:00.745Z,26.90
2018-07-01T18:01:29.664Z,26.60
2018-07-01T18:03:58.746Z,26.50
2018-07-01T18:06:27.684Z,26.60
2018-07-01T18:09:06.370Z,26.60
2018-07-01T18:11:35.274Z,26.40
2018-07-01T18:14:04.506Z,26.30
2018-07-01T18:16:33.442Z,26.20
2018-07-01T18:19:02.536Z,26.10
2018-07-01T18:21:31.822Z,26.10
2018-07-01T18:24:27.544Z,26.10
2018-07-01T18:26:29.758Z,26.00
2018-07-01T18:29:08.187Z,25.90
2018-07-01T18:31:27.930Z,25.90
2018-07-01T18:33:56.952Z,25.80
2018-07-01T18:36:25.847Z,25.60
2018-07-01T18:38:54.712Z,25.60
2018-07-01T18:43:52.116Z,25.60
2018-07-01T18:46:20.996Z,25.50
2018-07-01T18:48:49.993Z,25.40
2018-07-01T18:53:47.506Z,25.20
2018-07-01T18:56:16.445Z,25.20
2018-07-01T18:58:45.453Z,25.10
2018-07-01T19:01:14.395Z,25.10
2018-07-01T19:03:43.214Z,25.00
2018-07-01T19:08:41.103Z,24.90
2018-07-01T19:11:10.492Z,24.80
2018-07-01T19:13:39.479Z,24.80
2018-07-01T19:16:08.791Z,24.70
2018-07-01T19:18:37.822Z,24.60
2018-07-01T19:21:08.772Z,24.50
2018-07-01T19:23:38.967Z,24.50
2018-07-01T19:26:08.622Z,24.30
2018-07-01T19:28:38.044Z,24.30
2018-07-01T19:31:07.227Z,24.30
2018-07-01T19:33:36.329Z,24.30
2018-07-01T19:36:05.625Z,24.10
2018-07-01T19:38:35.066Z,24.10
2018-07-01T19:41:04.235Z,23.90
2018-07-01T19:43:34.032Z,23.90
2018-07-01T19:46:03.492Z,23.80
2018-07-01T19:48:33.445Z,23.70
2018-07-01T19:51:02.954Z,23.60
2018-07-01T19:53:32.305Z,23.60
2018-07-01T19:56:03.716Z,23.50
2018-07-01T19:58:32.758Z,23.40
2018-07-01T20:01:01.930Z,23.30
2018-07-01T20:03:33.368Z,23.20
2018-07-01T20:06:02.442Z,23.10
2018-07-01T20:08:31.436Z,23.00
2018-07-01T20:13:36.159Z,22.80
2018-07-01T20:16:05.033Z,22.70
2018-07-01T20:18:34.227Z,22.60
2018-07-01T20:21:03.289Z,22.50
2018-07-01T20:23:32.125Z,22.40
2018-07-01T20:26:01.931Z,22.30
2018-07-01T20:28:30.977Z,22.30
2018-07-01T20:30:59.887Z,22.20
2018-07-01T20:33:41.251Z,22.10
2018-07-01T20:36:10.232Z,22.10
2018-07-01T20:38:39.205Z,21.90
2018-07-01T20:41:08.239Z,21.90
2018-07-01T20:43:37.174Z,21.80
2018-07-01T20:46:06.624Z,21.70
2018-07-01T20:48:37.140Z,21.70
2018-07-01T20:51:06.580Z,21.70
2018-07-01T20:54:34.290Z,21.60
2018-07-01T20:57:05.173Z,21.50
2018-07-01T20:59:36.899Z,21.50
2018-07-01T21:02:05.861Z,21.50
2018-07-01T21:04:35.041Z,21.50
2018-07-01T21:07:04.633Z,21.40
2018-07-01T21:09:33.571Z,21.40
2018-07-01T21:12:02.505Z,21.40
2018-07-01T21:14:31.458Z,21.30
2018-07-01T21:17:01.032Z,21.30
2018-07-01T21:22:05.165Z,21.30
2018-07-01T21:24:34.071Z,21.20
2018-07-01T21:27:03.345Z,21.20
2018-07-01T21:32:01.098Z,21.10
2018-07-01T21:34:30.140Z,21.00
2018-07-01T21:36:59.203Z,20.90
2018-07-01T21:39:28.333Z,20.90
2018-07-01T21:41:57.420Z,20.90
2018-07-01T21:44:27.219Z,20.90
2018-07-01T21:46:59.384Z,20.80
2018-07-01T21:49:32.604Z,20.80
2018-07-01T21:52:10.664Z,20.70
2018-07-01T21:54:39.713Z,20.70
2018-07-01T21:57:08.820Z,20.60
2018-07-01T21:59:37.914Z,20.60
2018-07-01T22:02:07.051Z,20.60
2018-07-01T22:04:45.286Z,20.60
2018-07-01T22:07:13.851Z,20.50
2018-07-01T22:09:43.156Z,20.50
2018-07-01T22:12:23.643Z,20.40
2018-07-01T22:15:04.071Z,20.40
2018-07-01T22:20:11.219Z,20.40
2018-07-01T22:22:52.513Z,20.30
2018-07-01T22:25:21.903Z,20.40
2018-07-01T22:27:50.572Z,20.30
2018-07-01T22:30:19.657Z,20.30
2018-07-01T22:32:48.814Z,20.30
2018-07-01T22:35:17.310Z,20.30
2018-07-01T22:37:49.727Z,20.20
2018-07-01T22:40:18.375Z,20.20
2018-07-01T22:42:47.080Z,20.20
2018-07-01T22:45:16.051Z,20.00
2018-07-01T22:47:44.932Z,20.00
2018-07-01T22:50:13.806Z,20.00
2018-07-01T22:52:42.379Z,19.90
2018-07-01T22:55:11.787Z,19.90
2018-07-01T22:57:40.317Z,19.90
2018-07-01T23:00:08.712Z,19.80
2018-07-01T23:03:14.455Z,19.80
2018-07-01T23:05:43.478Z,19.70
2018-07-01T23:08:11.964Z,19.70
2018-07-01T23:10:40.446Z,19.70
2018-07-01T23:13:08.969Z,19.60
2018-07-01T23:15:37.411Z,19.60
2018-07-01T23:18:05.901Z,19.60
2018-07-01T23:20:34.394Z,19.50
2018-07-01T23:23:02.876Z,19.50
2018-07-01T23:25:32.438Z,19.50
2018-07-01T23:28:00.939Z,19.50
2018-07-01T23:30:29.428Z,19.40
2018-07-01T23:32:57.886Z,19.40
2018-07-01T23:35:26.420Z,19.40
2018-07-01T23:37:54.956Z,19.30
2018-07-01T23:42:51.651Z,19.20
2018-07-01T23:45:20.150Z,19.20
2018-07-01T23:47:48.640Z,19.20
2018-07-01T23:50:17.140Z,19.10
2018-07-01T23:52:46.528Z,19.10
2018-07-01T23:55:15.028Z,19.10
2018-07-01T23:57:43.556Z,19.00
